createdAt,value
2017-08-30T00:00:11.255Z,89.30
2017-08-30T00:02:39.109Z,89.20
2017-08-30T00:05:06.842Z,89.00
2017-08-30T00:07:36.487Z,89.50
2017-08-30T00:10:04.251Z,89.30
2017-08-30T00:12:32.020Z,89.50
2017-08-30T00:14:59.755Z,90.00
2017-08-30T00:17:27.547Z,89.80
2017-08-30T00:19:55.286Z,90.00
2017-08-30T00:22:23.020Z,89.80
2017-08-30T00:25:02.627Z,89.90
2017-08-30T00:27:30.407Z,90.00
2017-08-30T00:29:58.154Z,90.10
2017-08-30T00:32:26.711Z,90.10
2017-08-30T00:34:54.450Z,90.10
2017-08-30T00:37:22.187Z,90.10
2017-08-30T00:39:49.980Z,89.60
2017-08-30T00:42:17.763Z,90.00
2017-08-30T00:44:45.534Z,89.80
2017-08-30T00:47:13.310Z,90.10
2017-08-30T00:49:41.082Z,90.10
2017-08-30T00:52:08.835Z,90.00
2017-08-30T00:54:36.591Z,90.20
2017-08-30T00:57:04.346Z,90.20
2017-08-30T00:59:32.078Z,90.00
2017-08-30T01:01:59.817Z,90.10
2017-08-30T01:04:27.586Z,90.10
2017-08-30T01:06:55.350Z,90.40
2017-08-30T01:09:23.095Z,90.50
2017-08-30T01:11:50.828Z,90.60
2017-08-30T01:14:18.554Z,90.40
2017-08-30T01:16:46.271Z,90.30
2017-08-30T01:19:14.059Z,90.60
2017-08-30T01:21:41.799Z,90.70
2017-08-30T01:24:09.525Z,90.80
2017-08-30T01:26:37.255Z,90.60
2017-08-30T01:29:04.983Z,90.60
2017-08-30T01:31:32.717Z,90.60
2017-08-30T01:34:00.456Z,90.60
2017-08-30T01:36:28.702Z,90.40
2017-08-30T01:38:56.518Z,90.40
2017-08-30T01:41:24.260Z,90.50
2017-08-30T01:43:52.011Z,90.60
2017-08-30T01:46:19.731Z,90.30
2017-08-30T01:48:47.459Z,90.40
2017-08-30T01:51:15.208Z,90.70
2017-08-30T01:53:43.698Z,90.70
2017-08-30T01:56:11.467Z,90.70
2017-08-30T01:58:39.235Z,90.70
2017-08-30T02:01:06.965Z,90.80
2017-08-30T02:03:34.700Z,90.80
2017-08-30T02:06:02.442Z,90.60
2017-08-30T02:08:30.183Z,90.50
2017-08-30T02:10:57.951Z,91.00
2017-08-30T02:13:25.687Z,90.70
2017-08-30T02:15:53.431Z,90.70
2017-08-30T02:18:21.162Z,90.60
2017-08-30T02:20:48.887Z,90.60
2017-08-30T02:23:16.623Z,91.50
2017-08-30T02:25:44.354Z,91.40
2017-08-30T02:28:12.086Z,91.70
2017-08-30T02:30:39.840Z,91.50
2017-08-30T02:33:07.612Z,91.90
2017-08-30T02:35:35.352Z,91.80
2017-08-30T02:38:03.097Z,91.40
2017-08-30T02:40:30.831Z,91.20
2017-08-30T02:42:58.567Z,91.50
2017-08-30T02:45:26.306Z,91.40
2017-08-30T02:47:54.043Z,91.30
2017-08-30T02:50:21.779Z,91.60
2017-08-30T02:52:49.515Z,91.40
2017-08-30T02:55:17.244Z,91.40
2017-08-30T02:57:44.991Z,91.50
2017-08-30T03:00:12.739Z,91.40
2017-08-30T03:02:40.483Z,91.20
2017-08-30T03:05:08.223Z,91.40
2017-08-30T03:07:35.971Z,91.10
2017-08-30T03:10:03.703Z,91.20
2017-08-30T03:12:31.435Z,90.90
2017-08-30T03:14:59.171Z,90.80
2017-08-30T03:17:26.919Z,91.00
2017-08-30T03:19:54.655Z,91.10
2017-08-30T03:22:22.404Z,91.10
2017-08-30T03:24:50.143Z,91.10
2017-08-30T03:27:17.899Z,91.10
2017-08-30T03:29:45.643Z,91.00
2017-08-30T03:32:13.378Z,90.80
2017-08-30T03:34:41.114Z,91.10
2017-08-30T03:37:08.844Z,91.10
2017-08-30T03:39:36.591Z,91.20
2017-08-30T03:42:04.326Z,91.10
2017-08-30T03:44:32.071Z,91.40
2017-08-30T03:46:59.819Z,91.30
2017-08-30T03:49:27.555Z,91.10
2017-08-30T03:51:55.284Z,90.90
2017-08-30T03:54:23.075Z,90.90
2017-08-30T03:56:50.799Z,90.90
2017-08-30T03:59:18.532Z,91.00
2017-08-30T04:01:46.273Z,91.00
2017-08-30T04:04:13.990Z,90.80
2017-08-30T04:06:41.763Z,91.00
2017-08-30T04:09:09.499Z,90.80
2017-08-30T04:11:37.231Z,90.50
2017-08-30T04:14:04.950Z,90.40
2017-08-30T04:16:34.921Z,90.60
2017-08-30T04:19:02.654Z,91.10
2017-08-30T04:21:30.398Z,91.20
2017-08-30T04:23:58.137Z,90.70
2017-08-30T04:26:25.931Z,90.50
2017-08-30T04:28:53.646Z,90.60
2017-08-30T04:31:21.403Z,90.50
2017-08-30T04:33:49.142Z,91.50
2017-08-30T04:36:16.866Z,91.30
2017-08-30T04:38:44.570Z,90.90
2017-08-30T04:41:12.282Z,90.90
2017-08-30T04:43:39.994Z,91.20
2017-08-30T04:46:07.706Z,90.90
2017-08-30T04:48:35.420Z,90.80
2017-08-30T04:51:03.162Z,91.30
2017-08-30T04:53:30.873Z,91.30
2017-08-30T04:55:58.587Z,91.50
2017-08-30T04:58:26.307Z,91.30
2017-08-30T05:00:54.074Z,91.30
2017-08-30T05:03:21.801Z,91.30
2017-08-30T05:05:49.546Z,91.50
2017-08-30T05:08:18.027Z,91.00
2017-08-30T05:10:45.738Z,91.00
2017-08-30T05:13:13.461Z,91.00
2017-08-30T05:15:41.951Z,91.30
2017-08-30T05:18:09.662Z,91.30
2017-08-30T05:20:37.374Z,91.10
2017-08-30T05:23:05.092Z,91.00
2017-08-30T05:25:32.830Z,90.80
2017-08-30T05:28:00.558Z,90.80
2017-08-30T05:30:28.281Z,90.60
2017-08-30T05:32:56.006Z,90.60
2017-08-30T05:35:23.748Z,90.50
2017-08-30T05:37:51.463Z,90.40
2017-08-30T05:40:19.178Z,90.30
2017-08-30T05:42:46.890Z,90.30
2017-08-30T05:45:14.642Z,90.30
2017-08-30T05:47:42.361Z,90.30
2017-08-30T05:50:10.084Z,90.20
2017-08-30T05:52:37.807Z,90.00
2017-08-30T05:55:05.539Z,90.00
2017-08-30T05:57:33.279Z,89.70
2017-08-30T06:00:01.010Z,90.10
2017-08-30T06:02:28.770Z,90.30
2017-08-30T06:04:56.496Z,90.30
2017-08-30T06:07:24.249Z,90.30
2017-08-30T06:09:51.989Z,90.20
2017-08-30T06:12:19.722Z,90.10
2017-08-30T06:14:47.454Z,89.70
2017-08-30T06:17:15.178Z,88.80
2017-08-30T06:19:42.919Z,88.40
2017-08-30T06:22:10.651Z,87.70
2017-08-30T06:24:38.377Z,87.10
2017-08-30T06:27:06.111Z,86.10
2017-08-30T06:29:33.846Z,85.00
2017-08-30T06:32:01.598Z,83.90
2017-08-30T06:34:29.358Z,84.00
2017-08-30T06:36:57.142Z,83.20
2017-08-30T06:39:24.879Z,83.00
2017-08-30T06:41:52.610Z,80.00
2017-08-30T06:44:20.343Z,78.40
2017-08-30T06:46:48.131Z,78.20
2017-08-30T06:49:15.874Z,77.00
2017-08-30T06:51:43.600Z,75.90
2017-08-30T06:54:11.326Z,73.90
2017-08-30T06:56:39.062Z,72.30
2017-08-30T06:59:06.793Z,70.40
2017-08-30T07:01:34.511Z,67.20
2017-08-30T07:04:02.250Z,64.50
2017-08-30T07:06:30.019Z,62.10
2017-08-30T07:08:57.743Z,61.80
2017-08-30T07:11:25.466Z,59.40
2017-08-30T07:13:53.202Z,58.60
2017-08-30T07:16:20.967Z,59.10
2017-08-30T07:18:48.691Z,59.80
2017-08-30T07:21:16.434Z,59.50
2017-08-30T07:23:44.165Z,60.90
2017-08-30T07:26:11.892Z,61.00
2017-08-30T07:28:39.611Z,61.60
2017-08-30T07:31:08.110Z,60.80
2017-08-30T07:33:35.845Z,60.80
2017-08-30T07:36:03.585Z,61.20
2017-08-30T07:38:31.308Z,62.00
2017-08-30T07:40:59.057Z,62.40
2017-08-30T07:43:26.797Z,62.80
2017-08-30T07:45:54.517Z,64.30
2017-08-30T07:48:22.238Z,64.20
2017-08-30T07:50:49.966Z,66.30
2017-08-30T07:53:17.690Z,65.80
2017-08-30T07:55:45.414Z,67.20
2017-08-30T07:58:13.159Z,66.70
2017-08-30T08:00:40.938Z,68.20
2017-08-30T08:03:08.678Z,68.10
2017-08-30T08:05:36.414Z,70.50
2017-08-30T08:08:04.154Z,70.40
2017-08-30T08:10:32.647Z,69.70
2017-08-30T08:13:00.373Z,69.70
2017-08-30T08:15:28.153Z,68.50
2017-08-30T08:17:55.874Z,70.50
2017-08-30T08:20:23.646Z,69.20
2017-08-30T08:22:51.386Z,71.70
2017-08-30T08:25:19.130Z,69.40
2017-08-30T08:27:46.854Z,68.20
2017-08-30T08:30:14.592Z,66.80
2017-08-30T08:32:42.313Z,64.50
2017-08-30T08:35:10.034Z,63.30
2017-08-30T08:37:37.830Z,63.30
2017-08-30T08:40:06.327Z,61.80
2017-08-30T08:42:34.066Z,61.80
2017-08-30T08:45:01.839Z,63.80
2017-08-30T08:47:29.586Z,63.00
2017-08-30T08:49:57.330Z,62.10
2017-08-30T08:52:25.063Z,62.30
2017-08-30T08:54:52.798Z,63.80
2017-08-30T08:57:20.508Z,61.80
2017-08-30T08:59:48.227Z,63.60
2017-08-30T09:02:15.940Z,61.80
2017-08-30T09:04:43.658Z,61.60
2017-08-30T09:07:11.380Z,59.20
2017-08-30T09:09:39.103Z,59.60
2017-08-30T09:12:06.822Z,58.70
2017-08-30T09:14:34.551Z,59.80
2017-08-30T09:17:02.271Z,59.30
2017-08-30T09:19:29.991Z,58.70
2017-08-30T09:21:57.706Z,58.90
2017-08-30T09:24:25.416Z,57.60
2017-08-30T09:26:53.121Z,58.10
2017-08-30T09:29:20.833Z,60.90
2017-08-30T09:31:48.541Z,59.60
2017-08-30T09:34:16.260Z,60.20
2017-08-30T09:36:43.970Z,59.90
2017-08-30T09:39:11.682Z,60.00
2017-08-30T09:41:39.398Z,59.30
2017-08-30T09:44:07.114Z,60.10
2017-08-30T09:46:34.838Z,62.10
2017-08-30T09:49:02.562Z,61.70
2017-08-30T09:51:30.278Z,60.70
2017-08-30T09:53:58.046Z,59.80
2017-08-30T09:56:25.767Z,60.50
2017-08-30T09:58:53.481Z,62.10
2017-08-30T10:01:21.242Z,60.90
2017-08-30T10:03:48.958Z,61.80
2017-08-30T10:06:16.689Z,61.40
2017-08-30T10:08:44.411Z,59.70
2017-08-30T10:11:12.135Z,60.80
2017-08-30T10:13:39.849Z,61.20
2017-08-30T10:16:07.570Z,61.10
2017-08-30T10:18:35.284Z,59.70
2017-08-30T10:21:02.994Z,59.00
2017-08-30T10:23:30.709Z,61.20
2017-08-30T10:25:58.436Z,60.00
2017-08-30T10:28:26.170Z,60.80
2017-08-30T10:30:53.886Z,58.10
2017-08-30T10:33:21.605Z,58.10
2017-08-30T10:35:49.333Z,58.30
2017-08-30T10:38:17.078Z,58.00
2017-08-30T10:40:44.796Z,59.00
2017-08-30T10:43:12.506Z,59.40
2017-08-30T10:45:40.216Z,57.10
2017-08-30T10:48:07.931Z,56.10
2017-08-30T10:50:35.642Z,56.90
2017-08-30T10:53:03.413Z,57.90
2017-08-30T10:55:31.126Z,57.40
2017-08-30T10:57:58.857Z,58.90
2017-08-30T11:00:26.587Z,59.20
2017-08-30T11:02:54.302Z,58.30
2017-08-30T11:05:22.018Z,59.10
2017-08-30T11:07:49.749Z,57.30
2017-08-30T11:10:17.471Z,58.40
2017-08-30T11:12:45.208Z,56.90
2017-08-30T11:15:12.926Z,57.80
2017-08-30T11:17:40.637Z,56.50
2017-08-30T11:20:08.358Z,56.20
2017-08-30T11:22:36.075Z,57.20
2017-08-30T11:25:03.799Z,56.10
2017-08-30T11:27:31.524Z,56.00
2017-08-30T11:29:59.245Z,55.20
2017-08-30T11:32:26.963Z,54.40
2017-08-30T11:34:54.694Z,54.40
2017-08-30T11:37:22.421Z,55.30
2017-08-30T11:39:50.138Z,56.80
2017-08-30T11:42:17.860Z,55.90
2017-08-30T11:44:45.583Z,56.90
2017-08-30T11:47:13.313Z,58.20
2017-08-30T11:49:41.073Z,56.80
2017-08-30T11:52:08.798Z,57.40
2017-08-30T11:54:36.517Z,59.00
2017-08-30T11:57:04.231Z,58.30
2017-08-30T11:59:31.942Z,58.30
2017-08-30T12:01:59.662Z,59.30
2017-08-30T12:04:27.375Z,59.80
2017-08-30T12:06:55.100Z,60.70
2017-08-30T12:09:22.822Z,59.40
2017-08-30T12:11:50.539Z,60.00
2017-08-30T12:14:18.262Z,59.00
2017-08-30T12:16:45.980Z,60.50
2017-08-30T12:19:13.695Z,60.50
2017-08-30T12:21:41.414Z,61.20
2017-08-30T12:24:09.127Z,62.90
2017-08-30T12:26:36.843Z,60.00
2017-08-30T12:29:04.560Z,59.00
2017-08-30T12:31:32.278Z,59.90
2017-08-30T12:34:00.013Z,61.00
2017-08-30T12:36:27.802Z,60.90
2017-08-30T12:39:01.277Z,62.30
2017-08-30T12:41:28.999Z,59.50
2017-08-30T12:43:56.729Z,58.30
2017-08-30T12:46:24.482Z,59.30
2017-08-30T12:48:52.198Z,60.30
2017-08-30T12:51:19.942Z,58.30
2017-08-30T12:53:47.658Z,60.00
2017-08-30T12:56:15.389Z,61.00
2017-08-30T12:58:43.141Z,61.90
2017-08-30T13:01:10.880Z,61.90
2017-08-30T13:03:38.618Z,61.00
2017-08-30T13:06:06.410Z,61.20
2017-08-30T13:08:34.138Z,60.40
2017-08-30T13:11:01.910Z,56.30
2017-08-30T13:13:29.646Z,55.80
2017-08-30T13:15:57.371Z,54.90
2017-08-30T13:18:25.114Z,54.80
2017-08-30T13:20:52.841Z,53.00
2017-08-30T13:23:20.576Z,51.90
2017-08-30T13:25:48.294Z,53.20
2017-08-30T13:28:16.022Z,52.10
2017-08-30T13:30:43.751Z,49.60
2017-08-30T13:33:11.486Z,49.20
2017-08-30T13:35:39.210Z,50.60
2017-08-30T13:38:06.938Z,49.80
2017-08-30T13:40:34.662Z,50.50
2017-08-30T13:43:02.399Z,51.30
2017-08-30T13:45:30.142Z,51.50
2017-08-30T13:47:57.889Z,51.30
2017-08-30T13:50:25.617Z,51.10
2017-08-30T13:52:53.362Z,51.30
2017-08-30T13:55:21.098Z,52.70
2017-08-30T13:57:48.825Z,52.80
2017-08-30T14:00:16.554Z,50.90
2017-08-30T14:02:44.284Z,52.90
2017-08-30T14:05:12.021Z,49.90
2017-08-30T14:07:39.742Z,52.10
2017-08-30T14:10:07.467Z,51.90
2017-08-30T14:12:35.197Z,51.70
2017-08-30T14:15:02.951Z,51.60
2017-08-30T14:17:30.683Z,52.70
2017-08-30T14:19:58.398Z,50.80
2017-08-30T14:22:26.125Z,50.60
2017-08-30T14:24:54.629Z,52.50
2017-08-30T14:27:22.367Z,52.60
2017-08-30T14:29:50.094Z,52.80
2017-08-30T14:32:17.809Z,53.60
2017-08-30T14:34:45.533Z,53.20
2017-08-30T14:37:13.266Z,54.60
2017-08-30T14:39:40.991Z,52.50
2017-08-30T14:42:08.727Z,54.30
2017-08-30T14:44:36.459Z,52.70
2017-08-30T14:47:04.178Z,54.00
2017-08-30T14:49:31.923Z,52.30
2017-08-30T14:51:59.645Z,53.00
2017-08-30T14:54:27.361Z,52.50
2017-08-30T14:56:55.121Z,52.90
2017-08-30T14:59:22.871Z,52.70
2017-08-30T15:01:50.598Z,52.50
2017-08-30T15:04:18.327Z,52.20
2017-08-30T15:06:46.051Z,52.70
2017-08-30T15:09:13.776Z,54.20
2017-08-30T15:11:41.518Z,54.80
2017-08-30T15:14:09.251Z,54.60
2017-08-30T15:16:37.021Z,55.90
2017-08-30T15:19:04.894Z,56.10
2017-08-30T15:21:32.618Z,56.10
2017-08-30T15:24:00.418Z,56.90
2017-08-30T15:26:28.285Z,57.50
2017-08-30T15:28:56.153Z,57.90
2017-08-30T15:31:24.019Z,58.40
2017-08-30T15:33:51.887Z,57.80
2017-08-30T15:36:19.754Z,57.90
2017-08-30T15:38:47.621Z,57.90
2017-08-30T15:41:15.488Z,58.00
2017-08-30T15:43:43.215Z,58.10
2017-08-30T15:46:10.945Z,58.10
2017-08-30T15:48:38.784Z,58.80
2017-08-30T15:51:06.649Z,59.20
2017-08-30T15:53:34.518Z,59.40
2017-08-30T15:56:02.384Z,59.30
2017-08-30T15:58:30.251Z,58.30
2017-08-30T16:00:59.253Z,60.40
2017-08-30T16:03:27.113Z,61.50
2017-08-30T16:05:54.978Z,60.00
2017-08-30T16:08:22.850Z,60.00
2017-08-30T16:10:50.562Z,60.30
2017-08-30T16:13:18.376Z,59.30
2017-08-30T16:15:46.242Z,58.90
2017-08-30T16:18:14.110Z,59.00
2017-08-30T16:20:41.977Z,59.00
2017-08-30T16:23:09.844Z,59.70
2017-08-30T16:25:37.712Z,59.60
2017-08-30T16:28:05.578Z,60.30
2017-08-30T16:30:33.450Z,59.80
2017-08-30T16:33:01.314Z,60.90
2017-08-30T16:35:29.078Z,61.00
2017-08-30T16:37:56.944Z,60.40
2017-08-30T16:40:24.812Z,60.40
2017-08-30T16:42:52.680Z,60.40
2017-08-30T16:45:22.326Z,62.10
2017-08-30T16:47:50.257Z,61.60
2017-08-30T16:50:18.124Z,61.10
2017-08-30T16:52:45.845Z,61.50
2017-08-30T16:55:13.553Z,61.90
2017-08-30T16:57:41.269Z,62.40
2017-08-30T17:00:10.459Z,62.90
2017-08-30T17:02:38.193Z,61.90
2017-08-30T17:05:05.914Z,62.90
2017-08-30T17:07:33.662Z,63.60
2017-08-30T17:10:01.386Z,64.60
2017-08-30T17:12:29.185Z,65.00
2017-08-30T17:14:56.899Z,65.90
2017-08-30T17:17:24.622Z,66.00
2017-08-30T17:19:52.344Z,66.30
2017-08-30T17:22:20.076Z,65.70
2017-08-30T17:24:47.811Z,65.60
2017-08-30T17:27:15.574Z,66.60
2017-08-30T17:29:43.334Z,66.30
2017-08-30T17:32:11.072Z,66.80
2017-08-30T17:34:38.806Z,66.90
2017-08-30T17:37:06.535Z,68.30
2017-08-30T17:39:34.336Z,67.30
2017-08-30T17:42:02.059Z,67.90
2017-08-30T17:44:29.808Z,70.00
2017-08-30T17:46:57.535Z,70.20
2017-08-30T17:49:25.265Z,70.00
2017-08-30T17:51:52.998Z,71.00
2017-08-30T17:54:20.802Z,71.80
2017-08-30T17:56:48.533Z,71.70
2017-08-30T17:59:16.251Z,73.10
2017-08-30T18:01:43.993Z,71.50
2017-08-30T18:04:11.719Z,71.30
2017-08-30T18:06:39.454Z,72.30
2017-08-30T18:09:07.187Z,72.00
2017-08-30T18:11:34.931Z,71.40
2017-08-30T18:14:02.670Z,70.50
2017-08-30T18:16:30.496Z,71.50
2017-08-30T18:18:58.244Z,71.80
2017-08-30T18:21:25.978Z,72.40
2017-08-30T18:23:53.702Z,72.30
2017-08-30T18:26:21.454Z,72.60
2017-08-30T18:28:49.186Z,71.50
2017-08-30T18:31:16.923Z,72.00
2017-08-30T18:33:44.706Z,71.90
2017-08-30T18:36:12.457Z,71.80
2017-08-30T18:38:40.183Z,71.60
2017-08-30T18:41:07.929Z,72.10
2017-08-30T18:43:35.710Z,71.90
2017-08-30T18:46:03.442Z,71.90
2017-08-30T18:48:31.167Z,72.10
2017-08-30T18:50:58.904Z,71.80
2017-08-30T18:53:26.634Z,72.10
2017-08-30T18:55:54.393Z,72.70
2017-08-30T18:58:22.159Z,72.40
2017-08-30T19:00:49.888Z,73.20
2017-08-30T19:03:17.614Z,72.70
2017-08-30T19:05:45.366Z,72.50
2017-08-30T19:08:13.098Z,72.30
2017-08-30T19:10:40.828Z,72.10
2017-08-30T19:13:08.560Z,72.50
2017-08-30T19:15:36.290Z,73.10
2017-08-30T19:18:04.022Z,73.40
2017-08-30T19:20:31.811Z,73.00
2017-08-30T19:22:59.592Z,73.20
2017-08-30T19:25:27.325Z,74.10
2017-08-30T19:27:55.049Z,73.90
2017-08-30T19:30:22.778Z,73.90
2017-08-30T19:32:50.514Z,74.50
2017-08-30T19:35:18.271Z,75.30
2017-08-30T19:37:46.022Z,75.30
2017-08-30T19:40:13.764Z,75.50
2017-08-30T19:42:41.541Z,75.20
2017-08-30T19:45:09.301Z,75.20
2017-08-30T19:47:37.059Z,74.70
2017-08-30T19:50:04.835Z,75.20
2017-08-30T19:52:32.602Z,75.20
2017-08-30T19:55:00.374Z,74.90
2017-08-30T19:57:28.171Z,74.90
2017-08-30T19:59:55.894Z,75.30
2017-08-30T20:02:23.646Z,75.30
2017-08-30T20:04:51.379Z,75.20
2017-08-30T20:07:19.106Z,75.80
2017-08-30T20:09:46.831Z,75.40
2017-08-30T20:12:14.579Z,74.80
2017-08-30T20:14:42.355Z,75.50
2017-08-30T20:17:10.113Z,75.50
2017-08-30T20:19:37.848Z,75.10
2017-08-30T20:22:05.570Z,75.10
2017-08-30T20:24:33.282Z,75.70
2017-08-30T20:27:00.993Z,76.10
2017-08-30T20:29:28.709Z,75.80
2017-08-30T20:31:56.414Z,75.70
2017-08-30T20:34:24.166Z,76.10
2017-08-30T20:36:52.979Z,76.40
2017-08-30T20:39:20.695Z,77.30
2017-08-30T20:41:49.191Z,78.80
2017-08-30T20:44:16.975Z,78.80
2017-08-30T20:46:44.689Z,79.10
2017-08-30T20:49:12.395Z,79.40
2017-08-30T20:51:40.117Z,80.20
2017-08-30T20:54:07.844Z,80.70
2017-08-30T20:56:35.565Z,80.40
2017-08-30T20:59:03.294Z,80.70
2017-08-30T21:01:31.006Z,81.30
2017-08-30T21:03:58.728Z,82.30
2017-08-30T21:06:26.485Z,82.50
2017-08-30T21:08:54.410Z,83.10
2017-08-30T21:11:24.210Z,82.60
2017-08-30T21:13:52.001Z,83.20
2017-08-30T21:16:19.732Z,83.00
2017-08-30T21:18:47.699Z,83.00
2017-08-30T21:21:15.442Z,83.60
2017-08-30T21:23:43.146Z,83.20
2017-08-30T21:26:10.858Z,84.10
2017-08-30T21:28:38.566Z,84.30
2017-08-30T21:31:06.317Z,84.30
2017-08-30T21:33:34.039Z,84.40
2017-08-30T21:36:01.753Z,84.30
2017-08-30T21:38:29.477Z,84.20
2017-08-30T21:40:57.186Z,85.00
2017-08-30T21:43:24.901Z,85.20
2017-08-30T21:45:52.698Z,85.50
2017-08-30T21:48:20.419Z,85.70
2017-08-30T21:50:48.138Z,85.60
2017-08-30T21:53:16.625Z,87.50
2017-08-30T21:55:44.349Z,87.50
2017-08-30T21:58:12.065Z,87.60
2017-08-30T22:00:39.856Z,87.20
2017-08-30T22:03:07.569Z,87.60
2017-08-30T22:05:35.278Z,88.10
2017-08-30T22:08:02.989Z,88.20
2017-08-30T22:10:30.726Z,88.30
2017-08-30T22:12:58.453Z,88.90
2017-08-30T22:15:26.168Z,88.60
2017-08-30T22:17:53.876Z,89.50
2017-08-30T22:20:21.587Z,90.20
2017-08-30T22:22:50.075Z,90.40
2017-08-30T22:25:17.786Z,90.50
2017-08-30T22:27:45.511Z,90.40
2017-08-30T22:30:13.220Z,90.40
2017-08-30T22:32:40.965Z,90.70
2017-08-30T22:35:08.686Z,90.50
2017-08-30T22:37:36.408Z,90.10
2017-08-30T22:40:04.647Z,90.10
2017-08-30T22:42:32.363Z,90.00
2017-08-30T22:45:00.070Z,89.60
2017-08-30T22:47:27.789Z,89.70
2017-08-30T22:49:56.314Z,90.10
2017-08-30T22:52:24.033Z,89.70
2017-08-30T22:54:51.742Z,89.50
2017-08-30T22:57:19.484Z,89.50
2017-08-30T22:59:47.208Z,89.20
2017-08-30T23:02:15.090Z,88.50
2017-08-30T23:04:43.047Z,88.80
2017-08-30T23:07:10.762Z,88.60
2017-08-30T23:09:38.510Z,89.10
2017-08-30T23:12:06.235Z,89.10
2017-08-30T23:14:33.978Z,89.60
2017-08-30T23:17:07.126Z,89.60
2017-08-30T23:19:34.858Z,89.60
2017-08-30T23:22:02.575Z,89.60
2017-08-30T23:24:30.307Z,89.90
2017-08-30T23:26:58.037Z,90.00
2017-08-30T23:29:28.518Z,90.00
2017-08-30T23:31:56.276Z,89.80
2017-08-30T23:34:24.039Z,90.00
2017-08-30T23:36:51.761Z,90.10
2017-08-30T23:39:19.500Z,90.10
2017-08-30T23:41:47.229Z,90.10
2017-08-30T23:44:14.973Z,90.30
2017-08-30T23:46:42.704Z,90.30
2017-08-30T23:49:10.455Z,90.40
2017-08-30T23:51:38.234Z,90.30
2017-08-30T23:54:05.961Z,90.10
2017-08-30T23:56:33.705Z,90.30
2017-08-30T23:59:01.426Z,90.20
